createdAt,value
2022-12-18T00:01:32.150Z,-3.60
2022-12-18T00:04:00.779Z,-3.60
2022-12-18T00:06:30.344Z,-3.80
2022-12-18T00:08:59.830Z,-4.10
2022-12-18T00:11:30.448Z,-4.00
2022-12-18T00:14:01.208Z,-3.00
2022-12-18T00:16:33.668Z,-2.90
2022-12-18T00:19:02.972Z,-4.80
2022-12-18T00:21:32.163Z,-4.60
2022-12-18T00:24:01.017Z,-5.40
2022-12-18T00:26:31.233Z,-5.00
2022-12-18T00:29:01.169Z,-5.10
2022-12-18T00:31:30.885Z,-4.40
2022-12-18T00:33:59.828Z,-4.00
2022-12-18T00:36:30.543Z,-4.70
2022-12-18T00:38:59.933Z,-4.50
2022-12-18T00:41:45.764Z,-4.60
2022-12-18T00:44:15.599Z,-5.10
2022-12-18T00:46:46.127Z,-4.90
2022-12-18T00:49:15.148Z,-4.10
2022-12-18T00:51:43.067Z,-3.80
2022-12-18T00:54:12.620Z,-4.80
2022-12-18T00:56:48.476Z,-5.00
2022-12-18T00:59:16.817Z,-5.60
2022-12-18T01:01:46.982Z,-4.80
2022-12-18T01:04:15.521Z,-5.00
2022-12-18T01:06:43.347Z,-4.40
2022-12-18T01:09:12.454Z,-4.30
2022-12-18T01:11:40.210Z,-4.40
2022-12-18T01:14:08.404Z,-4.10
2022-12-18T01:16:36.319Z,-4.30
2022-12-18T01:19:05.548Z,-4.20
2022-12-18T01:21:33.479Z,-4.50
2022-12-18T01:24:01.233Z,-3.90
2022-12-18T01:26:31.363Z,-3.50
2022-12-18T01:28:59.756Z,-3.40
2022-12-18T01:31:29.273Z,-3.70
2022-12-18T01:33:58.180Z,-3.20
2022-12-18T01:36:29.652Z,-3.30
2022-12-18T01:38:58.823Z,-4.40
2022-12-18T01:41:48.939Z,-5.30
2022-12-18T01:44:53.775Z,-5.30
2022-12-18T01:47:25.795Z,-5.00
2022-12-18T01:49:53.755Z,-4.70
2022-12-18T01:52:24.336Z,-4.80
2022-12-18T01:54:53.749Z,-5.20
2022-12-18T01:57:22.503Z,-5.30
2022-12-18T01:59:54.512Z,-3.90
2022-12-18T02:02:23.257Z,-3.80
2022-12-18T02:04:51.112Z,-4.20
2022-12-18T02:07:27.433Z,-3.60
2022-12-18T02:10:01.011Z,-4.30
2022-12-18T02:12:35.320Z,-4.80
2022-12-18T02:15:10.503Z,-4.50
2022-12-18T02:17:45.100Z,-4.10
2022-12-18T02:20:18.959Z,-4.50
2022-12-18T02:23:00.126Z,-4.40
2022-12-18T02:25:42.494Z,-4.30
2022-12-18T02:28:15.471Z,-5.00
2022-12-18T02:30:44.928Z,-5.00
2022-12-18T02:33:14.643Z,-4.30
2022-12-18T02:35:44.732Z,-4.50
2022-12-18T02:38:13.820Z,-4.90
2022-12-18T02:40:42.560Z,-4.20
2022-12-18T02:43:14.046Z,-4.50
2022-12-18T02:45:49.053Z,-4.40
2022-12-18T02:48:17.524Z,-5.00
2022-12-18T02:50:53.932Z,-5.20
2022-12-18T02:53:28.142Z,-4.60
2022-12-18T02:56:04.524Z,-4.60
2022-12-18T02:58:42.833Z,-4.50
2022-12-18T03:01:17.378Z,-4.50
2022-12-18T03:03:52.307Z,-5.10
2022-12-18T03:06:25.599Z,-5.00
2022-12-18T03:08:59.532Z,-4.50
2022-12-18T03:11:43.732Z,-4.80
2022-12-18T03:14:16.995Z,-4.80
2022-12-18T03:16:46.741Z,-4.40
2022-12-18T03:19:18.355Z,-4.60
2022-12-18T03:21:49.396Z,-5.20
2022-12-18T03:24:18.984Z,-5.00
2022-12-18T03:26:50.655Z,-4.70
2022-12-18T03:29:23.415Z,-5.40
2022-12-18T03:31:56.578Z,-4.60
2022-12-18T03:34:31.462Z,-4.50
2022-12-18T03:36:59.554Z,-5.40
2022-12-18T03:39:27.790Z,-5.10
2022-12-18T03:42:03.457Z,-4.60
2022-12-18T03:44:39.484Z,-4.20
2022-12-18T03:47:11.578Z,-5.10
2022-12-18T03:49:46.062Z,-5.40
2022-12-18T03:52:19.965Z,-4.70
2022-12-18T03:54:48.615Z,-4.00
2022-12-18T03:57:20.112Z,-4.60
2022-12-18T03:59:52.407Z,-4.40
2022-12-18T04:02:21.220Z,-4.70
2022-12-18T04:04:52.560Z,-4.90
2022-12-18T04:07:21.684Z,-4.70
2022-12-18T04:09:52.126Z,-4.60
2022-12-18T04:12:19.964Z,-4.80
2022-12-18T04:14:49.123Z,-5.20
2022-12-18T04:17:17.050Z,-5.00
2022-12-18T04:19:44.801Z,-5.40
2022-12-18T04:22:13.019Z,-4.70
2022-12-18T04:24:40.788Z,-3.70
2022-12-18T04:27:09.026Z,-4.00
2022-12-18T04:29:36.810Z,-3.70
2022-12-18T04:32:06.278Z,-4.40
2022-12-18T04:34:34.055Z,-4.50
2022-12-18T04:37:01.924Z,-4.00
2022-12-18T04:39:29.714Z,-3.80
2022-12-18T04:41:57.534Z,-4.30
2022-12-18T04:44:25.339Z,-4.90
2022-12-18T04:46:53.218Z,-4.10
2022-12-18T04:49:22.556Z,-4.60
2022-12-18T04:51:50.388Z,-4.60
2022-12-18T04:54:18.215Z,-3.90
2022-12-18T04:56:46.088Z,-4.70
2022-12-18T04:59:14.076Z,-4.50
2022-12-18T05:01:41.965Z,-4.60
2022-12-18T05:04:10.350Z,-4.10
2022-12-18T05:06:39.534Z,-5.00
2022-12-18T05:09:07.450Z,-5.30
2022-12-18T05:11:35.232Z,-4.40
2022-12-18T05:14:03.034Z,-4.00
2022-12-18T05:16:30.871Z,-4.80
2022-12-18T05:18:58.761Z,-5.40
2022-12-18T05:21:26.644Z,-4.20
2022-12-18T05:23:56.067Z,-5.10
2022-12-18T05:26:23.835Z,-4.90
2022-12-18T05:28:51.628Z,-4.60
2022-12-18T05:31:19.585Z,-4.10
2022-12-18T05:33:47.404Z,-4.40
2022-12-18T05:36:15.194Z,-4.40
2022-12-18T05:38:43.053Z,-4.50
2022-12-18T05:41:12.298Z,-4.50
2022-12-18T05:43:41.784Z,-4.40
2022-12-18T05:46:13.943Z,-4.20
2022-12-18T05:48:41.828Z,-4.70
2022-12-18T05:51:11.434Z,-4.20
2022-12-18T05:53:40.577Z,-4.30
2022-12-18T05:56:10.816Z,-4.00
2022-12-18T05:58:40.229Z,-4.30
2022-12-18T06:01:11.402Z,-4.60
2022-12-18T06:03:39.898Z,-4.90
2022-12-18T06:06:15.991Z,-4.80
2022-12-18T06:08:46.525Z,-4.80
2022-12-18T06:11:14.625Z,-4.40
2022-12-18T06:13:43.788Z,-3.90
2022-12-18T06:16:11.695Z,-3.70
2022-12-18T06:18:39.910Z,-4.20
2022-12-18T06:21:07.756Z,-4.50
2022-12-18T06:23:35.826Z,-4.70
2022-12-18T06:26:07.096Z,-5.00
2022-12-18T06:28:34.871Z,-5.30
2022-12-18T06:31:04.816Z,-5.10
2022-12-18T06:33:33.499Z,-4.30
2022-12-18T06:36:03.663Z,-4.70
2022-12-18T06:38:31.817Z,-4.50
2022-12-18T06:40:59.668Z,-3.90
2022-12-18T06:43:27.811Z,-4.70
2022-12-18T06:46:01.286Z,-5.00
2022-12-18T06:48:30.593Z,-4.30
2022-12-18T06:50:58.378Z,-3.80
2022-12-18T06:53:26.313Z,-3.30
2022-12-18T06:55:54.140Z,-3.10
2022-12-18T06:58:21.873Z,-4.10
2022-12-18T07:00:49.619Z,-3.70
2022-12-18T07:03:17.424Z,-4.00
2022-12-18T07:05:46.563Z,-4.50
2022-12-18T07:08:14.362Z,-4.40
2022-12-18T07:10:48.187Z,-3.80
2022-12-18T07:13:17.845Z,-3.90
2022-12-18T07:15:45.600Z,-3.40
2022-12-18T07:18:13.334Z,-3.00
2022-12-18T07:20:41.509Z,-3.20
2022-12-18T07:23:10.608Z,-3.10
2022-12-18T07:25:38.921Z,-3.50
2022-12-18T07:28:06.937Z,-3.10
2022-12-18T07:30:34.859Z,-4.60
2022-12-18T07:33:02.633Z,-4.30
2022-12-18T07:35:30.376Z,-4.50
2022-12-18T07:37:58.148Z,-4.20
2022-12-18T07:40:27.258Z,-3.80
2022-12-18T07:42:55.021Z,-4.30
2022-12-18T07:45:22.829Z,-4.80
2022-12-18T07:47:50.573Z,-4.20
2022-12-18T07:50:18.491Z,-4.70
2022-12-18T07:52:46.261Z,-3.90
2022-12-18T07:55:14.014Z,-3.30
2022-12-18T07:57:52.507Z,-3.40
2022-12-18T08:00:22.060Z,-4.10
2022-12-18T08:02:50.028Z,-4.30
2022-12-18T08:05:18.116Z,-4.70
2022-12-18T08:07:45.960Z,-5.00
2022-12-18T08:10:13.969Z,-4.90
2022-12-18T08:12:43.130Z,-4.80
2022-12-18T08:15:11.553Z,-4.90
2022-12-18T08:17:39.327Z,-4.50
2022-12-18T08:20:07.905Z,-4.10
2022-12-18T08:22:40.444Z,-4.90
2022-12-18T08:25:09.104Z,-4.50
2022-12-18T08:27:36.916Z,-4.10
2022-12-18T08:30:07.276Z,-3.90
2022-12-18T08:32:35.465Z,-3.80
2022-12-18T08:35:03.241Z,-4.70
2022-12-18T08:37:30.981Z,-4.90
2022-12-18T08:39:58.728Z,-5.00
2022-12-18T08:42:44.090Z,-5.10
2022-12-18T08:45:13.311Z,-4.70
2022-12-18T08:47:41.062Z,-4.30
2022-12-18T08:50:09.552Z,-4.00
2022-12-18T08:52:37.351Z,-4.10
2022-12-18T08:55:05.838Z,-3.90
2022-12-18T08:57:33.596Z,-4.10
2022-12-18T09:00:01.360Z,-4.30
2022-12-18T09:02:31.010Z,-4.10
2022-12-18T09:04:58.991Z,-4.70
2022-12-18T09:07:26.774Z,-4.00
2022-12-18T09:09:54.555Z,-4.40
2022-12-18T09:12:22.332Z,-3.50
2022-12-18T09:14:50.668Z,-3.40
2022-12-18T09:17:18.503Z,-3.80
2022-12-18T09:19:47.665Z,-4.80
2022-12-18T09:22:15.568Z,-4.60
2022-12-18T09:24:43.329Z,-3.40
2022-12-18T09:27:11.148Z,-4.00
2022-12-18T09:29:39.123Z,-4.90
2022-12-18T09:32:07.276Z,-4.80
2022-12-18T09:34:35.192Z,-4.80
2022-12-18T09:37:04.321Z,-4.70
2022-12-18T09:39:32.067Z,-4.70
2022-12-18T09:42:00.963Z,-4.40
2022-12-18T09:44:31.684Z,-3.70
2022-12-18T09:47:11.432Z,-4.50
2022-12-18T09:49:43.828Z,-4.70
2022-12-18T09:52:17.687Z,-4.80
2022-12-18T09:54:49.510Z,-4.70
2022-12-18T09:57:20.196Z,-4.90
2022-12-18T09:59:53.854Z,-4.70
2022-12-18T10:02:24.609Z,-4.50
2022-12-18T10:05:03.875Z,-4.40
2022-12-18T10:07:41.804Z,-4.60
2022-12-18T10:10:18.700Z,-3.80
2022-12-18T10:12:53.446Z,-3.30
2022-12-18T10:15:30.221Z,-2.90
2022-12-18T10:18:04.674Z,-3.20
2022-12-18T10:20:40.594Z,-3.30
2022-12-18T10:23:19.701Z,-4.30
2022-12-18T10:25:55.808Z,-3.70
2022-12-18T10:28:25.161Z,-3.00
2022-12-18T10:30:52.911Z,-3.50
2022-12-18T10:33:23.193Z,-3.20
2022-12-18T10:35:52.927Z,-3.30
2022-12-18T10:38:28.098Z,-4.50
2022-12-18T10:40:58.179Z,-4.20
2022-12-18T10:43:28.419Z,-3.50
2022-12-18T10:46:03.391Z,-3.60
2022-12-18T10:48:32.556Z,-4.40
2022-12-18T10:51:12.888Z,-4.20
2022-12-18T10:53:44.612Z,-4.10
2022-12-18T10:56:12.706Z,-4.30
2022-12-18T10:58:42.058Z,-4.40
2022-12-18T11:01:12.913Z,-4.30
2022-12-18T11:03:42.627Z,-4.20
2022-12-18T11:06:12.962Z,-4.40
2022-12-18T11:08:43.756Z,-4.30
2022-12-18T11:11:21.429Z,-4.70
2022-12-18T11:14:02.615Z,-4.80
2022-12-18T11:16:33.088Z,-4.60
2022-12-18T11:19:17.281Z,-4.20
2022-12-18T11:21:45.411Z,-4.40
2022-12-18T11:24:24.909Z,-4.70
2022-12-18T11:26:59.385Z,-3.80
2022-12-18T11:29:34.115Z,-3.90
2022-12-18T11:32:31.680Z,-3.50
2022-12-18T11:35:10.592Z,-3.90
2022-12-18T11:37:39.096Z,-4.30
2022-12-18T11:40:15.974Z,-4.30
2022-12-18T11:42:50.207Z,-3.10
2022-12-18T11:45:30.348Z,-3.10
2022-12-18T11:48:03.297Z,-4.10
2022-12-18T11:50:39.739Z,-4.10
2022-12-18T11:53:12.336Z,-4.00
2022-12-18T11:55:46.537Z,-4.40
2022-12-18T11:58:23.323Z,-4.60
2022-12-18T12:01:02.415Z,-4.30
2022-12-18T12:03:49.532Z,-3.40
2022-12-18T12:06:27.008Z,-4.50
2022-12-18T12:09:09.905Z,-4.60
2022-12-18T12:11:52.359Z,-3.90
2022-12-18T12:14:47.601Z,-3.10
2022-12-18T12:17:26.123Z,-3.40
2022-12-18T12:20:03.000Z,-3.70
2022-12-18T12:22:39.849Z,-3.60
2022-12-18T12:25:26.346Z,-4.20
2022-12-18T12:28:05.619Z,-3.90
2022-12-18T12:30:41.886Z,-4.40
2022-12-18T12:33:21.505Z,-4.40
2022-12-18T12:35:57.186Z,-3.50
2022-12-18T12:38:29.088Z,-3.50
2022-12-18T12:41:04.115Z,-3.40
2022-12-18T12:43:43.351Z,-3.10
2022-12-18T12:46:22.258Z,-3.50
2022-12-18T12:48:54.503Z,-2.60
2022-12-18T12:51:25.615Z,-2.60
2022-12-18T12:53:54.973Z,-2.70
2022-12-18T12:56:24.389Z,-3.40
2022-12-18T12:59:04.113Z,-3.70
2022-12-18T13:01:40.621Z,-4.30
2022-12-18T13:04:21.478Z,-4.20
2022-12-18T13:06:55.626Z,-3.60
2022-12-18T13:09:23.491Z,-3.70
2022-12-18T13:12:08.820Z,-3.40
2022-12-18T13:14:40.340Z,-2.80
2022-12-18T13:17:31.774Z,-2.40
2022-12-18T13:20:12.743Z,-3.40
2022-12-18T13:22:44.924Z,-3.20
2022-12-18T13:25:34.763Z,-3.00
2022-12-18T13:28:13.728Z,-4.10
2022-12-18T13:31:07.812Z,-3.40
2022-12-18T13:34:09.399Z,-3.40
2022-12-18T13:36:34.659Z,-3.90
2022-12-18T13:39:36.757Z,-2.50
2022-12-18T13:42:57.594Z,-2.60
2022-12-18T13:45:43.055Z,-2.50
2022-12-18T13:48:24.576Z,-3.80
2022-12-18T13:50:58.525Z,-3.80
2022-12-18T13:53:31.015Z,-3.90
2022-12-18T13:55:59.214Z,-2.90
2022-12-18T13:58:27.076Z,-2.80
2022-12-18T14:00:55.201Z,-3.30
2022-12-18T14:03:28.009Z,-4.30
2022-12-18T14:06:02.594Z,-4.10
2022-12-18T14:08:37.824Z,-3.70
2022-12-18T14:11:08.414Z,-4.20
2022-12-18T14:13:41.521Z,-3.70
2022-12-18T14:16:14.263Z,-3.40
2022-12-18T14:18:47.846Z,-3.60
2022-12-18T14:21:36.011Z,-3.90
2022-12-18T14:24:14.119Z,-3.00
2022-12-18T14:26:43.030Z,-4.00
2022-12-18T14:29:23.904Z,-3.60
2022-12-18T14:32:17.347Z,-4.00
2022-12-18T14:34:48.214Z,-3.70
2022-12-18T14:37:21.871Z,-2.80
2022-12-18T14:39:58.949Z,-3.10
2022-12-18T14:42:28.937Z,-4.30
2022-12-18T14:45:41.583Z,-3.70
2022-12-18T14:48:11.602Z,-3.60
2022-12-18T14:50:43.000Z,-2.90
2022-12-18T14:53:22.024Z,-3.30
2022-12-18T14:55:50.688Z,-3.70
2022-12-18T14:58:20.093Z,-3.80
2022-12-18T15:00:48.265Z,-3.40
2022-12-18T15:03:20.961Z,-3.60
2022-12-18T15:05:50.360Z,-4.30
2022-12-18T15:08:32.415Z,-4.40
2022-12-18T15:11:00.867Z,-3.90
2022-12-18T15:13:29.405Z,-3.40
2022-12-18T15:15:59.112Z,-2.70
2022-12-18T15:18:34.150Z,-2.80
2022-12-18T15:21:10.896Z,-3.40
2022-12-18T15:23:47.964Z,-4.10
2022-12-18T15:26:17.563Z,-3.60
2022-12-18T15:28:48.108Z,-3.50
2022-12-18T15:31:31.014Z,-3.10
2022-12-18T15:34:11.556Z,-2.70
2022-12-18T15:36:41.144Z,-2.50
2022-12-18T15:39:12.691Z,-2.60
2022-12-18T15:41:40.584Z,-2.40
2022-12-18T15:44:24.039Z,-2.40
2022-12-18T15:46:51.880Z,-2.40
2022-12-18T15:49:19.674Z,-2.50
2022-12-18T15:51:52.640Z,-2.50
2022-12-18T15:54:41.427Z,-2.50
2022-12-18T15:57:26.310Z,-2.60
2022-12-18T15:59:56.058Z,-2.80
2022-12-18T16:02:24.786Z,-3.90
2022-12-18T16:04:53.267Z,-3.70
2022-12-18T16:07:25.260Z,-3.40
2022-12-18T16:09:53.923Z,-4.10
2022-12-18T16:12:26.795Z,-3.40
2022-12-18T16:14:54.645Z,-3.90
2022-12-18T16:17:22.433Z,-4.60
2022-12-18T16:19:50.399Z,-3.60
2022-12-18T16:22:23.583Z,-3.50
2022-12-18T16:24:52.802Z,-4.00
2022-12-18T16:27:21.104Z,-4.70
2022-12-18T16:29:49.167Z,-3.90
2022-12-18T16:32:19.233Z,-4.40
2022-12-18T16:34:47.938Z,-5.00
2022-12-18T16:37:17.035Z,-4.60
2022-12-18T16:39:46.686Z,-4.00
2022-12-18T16:42:19.831Z,-3.90
2022-12-18T16:44:49.017Z,-3.30
2022-12-18T16:47:17.577Z,-2.80
2022-12-18T16:49:46.233Z,-2.80
2022-12-18T16:52:14.568Z,-2.80
2022-12-18T16:54:42.451Z,-2.60
2022-12-18T16:57:15.111Z,-3.50
2022-12-18T16:59:42.891Z,-3.30
2022-12-18T17:02:16.260Z,-2.90
2022-12-18T17:04:46.840Z,-2.90
2022-12-18T17:07:15.630Z,-3.10
2022-12-18T17:09:43.671Z,-2.70
2022-12-18T17:12:13.192Z,-3.00
2022-12-18T17:14:41.167Z,-3.00
2022-12-18T17:17:24.466Z,-2.70
2022-12-18T17:19:53.140Z,-2.70
2022-12-18T17:22:21.807Z,-2.70
2022-12-18T17:24:49.592Z,-2.60
2022-12-18T17:27:18.830Z,-2.60
2022-12-18T17:29:49.406Z,-2.70
2022-12-18T17:32:17.996Z,-2.60
2022-12-18T17:34:46.507Z,-2.70
2022-12-18T17:37:14.866Z,-2.70
2022-12-18T17:39:43.081Z,-2.60
2022-12-18T17:42:11.508Z,-2.60
2022-12-18T17:44:45.042Z,-2.60
2022-12-18T17:47:13.291Z,-2.70
2022-12-18T17:49:42.928Z,-2.70
2022-12-18T17:52:11.155Z,-2.70
2022-12-18T17:54:41.877Z,-2.70
2022-12-18T17:57:10.266Z,-2.90
2022-12-18T17:59:38.177Z,-3.00
2022-12-18T18:02:07.969Z,-3.40
2022-12-18T18:04:36.491Z,-3.30
2022-12-18T18:07:04.471Z,-3.10
2022-12-18T18:09:32.329Z,-4.40
2022-12-18T18:12:17.544Z,-4.20
2022-12-18T18:14:45.578Z,-3.30
2022-12-18T18:17:14.810Z,-3.70
2022-12-18T18:19:43.529Z,-3.30
2022-12-18T18:22:17.275Z,-3.50
2022-12-18T18:24:46.646Z,-3.70
2022-12-18T18:27:14.860Z,-3.00
2022-12-18T18:29:42.808Z,-2.70
2022-12-18T18:32:10.592Z,-2.80
2022-12-18T18:34:42.275Z,-3.30
2022-12-18T18:37:11.785Z,-2.90
2022-12-18T18:39:39.642Z,-3.40
2022-12-18T18:42:07.690Z,-3.30
2022-12-18T18:44:35.543Z,-3.70
2022-12-18T18:47:03.591Z,-3.60
2022-12-18T18:49:34.193Z,-3.60
2022-12-18T18:52:03.454Z,-3.00
2022-12-18T18:54:31.333Z,-3.10
2022-12-18T18:59:47.510Z,-4.00
2022-12-18T19:02:17.428Z,-4.00
2022-12-18T19:04:46.668Z,-3.70
2022-12-18T19:07:23.902Z,-3.70
2022-12-18T19:10:03.960Z,-4.10
2022-12-18T19:12:50.664Z,-4.10
2022-12-18T19:15:18.494Z,-4.30
2022-12-18T19:17:47.499Z,-3.60
2022-12-18T19:20:16.080Z,-4.00
2022-12-18T19:22:55.365Z,-4.30
2022-12-18T19:25:28.379Z,-4.00
2022-12-18T19:28:10.995Z,-4.60
2022-12-18T19:30:49.064Z,-3.60
2022-12-18T19:36:12.124Z,-5.10
2022-12-18T19:38:42.736Z,-4.30
2022-12-18T19:41:13.077Z,-3.40
2022-12-18T19:43:45.150Z,-4.00
2022-12-18T19:46:18.013Z,-3.30
2022-12-18T19:48:46.544Z,-4.00
2022-12-18T19:51:16.738Z,-4.00
2022-12-18T19:53:46.729Z,-3.70
2022-12-18T19:56:16.776Z,-3.10
2022-12-18T19:58:45.302Z,-3.20
2022-12-18T20:01:14.082Z,-3.20
2022-12-18T20:03:46.614Z,-3.70
2022-12-18T20:06:24.540Z,-3.70
2022-12-18T20:08:57.977Z,-3.40
2022-12-18T20:11:29.298Z,-3.60
2022-12-18T20:13:57.258Z,-3.90
2022-12-18T20:16:25.321Z,-3.40
2022-12-18T20:18:53.355Z,-3.50
2022-12-18T20:21:21.285Z,-4.00
2022-12-18T20:23:49.150Z,-4.50
2022-12-18T20:26:19.259Z,-5.10
2022-12-18T20:28:47.020Z,-4.00
2022-12-18T20:31:15.256Z,-4.70
2022-12-18T20:33:43.930Z,-3.70
2022-12-18T20:36:22.447Z,-3.10
2022-12-18T20:38:57.322Z,-3.00
2022-12-18T20:41:37.318Z,-3.00
2022-12-18T20:44:07.307Z,-3.40
2022-12-18T20:46:47.848Z,-3.10
2022-12-18T20:49:15.638Z,-3.20
2022-12-18T20:51:43.478Z,-3.10
2022-12-18T20:54:12.043Z,-2.90
2022-12-18T20:56:41.224Z,-3.00
2022-12-18T20:59:10.162Z,-3.00
2022-12-18T21:01:38.802Z,-3.00
2022-12-18T21:04:09.408Z,-4.10
2022-12-18T21:06:37.720Z,-4.50
2022-12-18T21:09:05.565Z,-5.00
2022-12-18T21:11:52.116Z,-4.80
2022-12-18T21:14:23.396Z,-4.30
2022-12-18T21:16:52.103Z,-4.90
2022-12-18T21:19:22.955Z,-4.00
2022-12-18T21:21:51.280Z,-3.90
2022-12-18T21:24:19.476Z,-4.80
2022-12-18T21:26:48.723Z,-5.10
2022-12-18T21:29:18.838Z,-5.40
2022-12-18T21:31:48.796Z,-4.40
2022-12-18T21:34:18.384Z,-4.30
2022-12-18T21:36:46.783Z,-3.70
2022-12-18T21:39:14.914Z,-4.50
2022-12-18T21:42:00.856Z,-4.50
2022-12-18T21:44:28.900Z,-3.50
2022-12-18T21:47:04.561Z,-3.20
2022-12-18T21:49:39.847Z,-3.20
2022-12-18T21:52:08.684Z,-3.30
2022-12-18T21:54:36.413Z,-3.50
2022-12-18T21:57:06.113Z,-3.40
2022-12-18T21:59:35.556Z,-3.30
2022-12-18T22:02:07.070Z,-3.10
2022-12-18T22:04:35.090Z,-3.10
2022-12-18T22:07:03.447Z,-3.20
2022-12-18T22:09:31.192Z,-3.20
2022-12-18T22:11:59.788Z,-3.10
2022-12-18T22:14:28.755Z,-3.10
2022-12-18T22:16:57.348Z,-3.50
2022-12-18T22:19:26.512Z,-4.40
2022-12-18T22:21:55.220Z,-4.60
2022-12-18T22:24:25.239Z,-4.60
2022-12-18T22:27:01.575Z,-4.00
2022-12-18T22:29:47.627Z,-4.70
2022-12-18T22:32:20.388Z,-4.80
2022-12-18T22:35:06.826Z,-3.80
2022-12-18T22:37:35.962Z,-3.80
2022-12-18T22:40:07.261Z,-5.20
2022-12-18T22:42:35.494Z,-5.00
2022-12-18T22:45:03.386Z,-5.00
2022-12-18T22:47:31.300Z,-4.20
2022-12-18T22:50:00.501Z,-5.50
2022-12-18T22:52:28.314Z,-4.30
2022-12-18T22:54:56.116Z,-4.10
2022-12-18T22:57:24.203Z,-4.50
2022-12-18T23:02:33.530Z,-4.50
2022-12-18T23:05:02.813Z,-4.00
2022-12-18T23:07:30.665Z,-4.20
2022-12-18T23:09:58.923Z,-3.80
2022-12-18T23:12:28.930Z,-3.50
2022-12-18T23:14:57.017Z,-3.20
2022-12-18T23:17:24.767Z,-3.90
2022-12-18T23:19:52.566Z,-3.80
2022-12-18T23:22:21.762Z,-4.10
2022-12-18T23:24:49.540Z,-3.70
2022-12-18T23:27:17.291Z,-3.90
2022-12-18T23:29:45.275Z,-4.50
2022-12-18T23:32:15.028Z,-5.00
2022-12-18T23:34:42.925Z,-4.70
2022-12-18T23:37:10.708Z,-5.00
2022-12-18T23:39:39.828Z,-4.20
2022-12-18T23:42:07.554Z,-3.90
2022-12-18T23:44:35.379Z,-4.30
2022-12-18T23:47:03.105Z,-3.90
2022-12-18T23:49:31.074Z,-4.60
2022-12-18T23:51:59.287Z,-4.40
2022-12-18T23:54:32.908Z,-4.10
2022-12-18T23:57:02.916Z,-3.90
2022-12-18T23:59:30.673Z,-3.30
